Time;durP1;ratioP1;P1;durP2;ratioP2;P2;SDS_P1;SDS_P2;PMS_P1;PMS_P2;Temp;Humidity;BMP_temperature;BMP_pressure;BME280_temperature;BME280_humidity;BME280_pressure;Samples;Min_cycle;Max_cycle;Signal;HPM_P1;HPM_P2
2021/09/29 09:58:20;;;;;;;2.20;1.57;;;;;;;;;;5122095;27;78113;-59
2021/09/29 10:01:15;;;;;;;2.67;1.70;;;;;;;;;;5069301;28;20555;-55
2021/09/29 10:03:42;;;;;;;2.80;1.27;;;;;;;;;;5031691;28;21013;-54
2021/09/29 10:06:09;;;;;;;1.67;1.37;;;;;;;;;;5043264;28;20451;-49
2021/09/29 10:08:37;;;;;;;1.70;1.40;;;;;;;;;;5028766;28;20458;-55
2021/09/29 10:11:07;;;;;;;1.70;1.47;;;;;;;;;;5028172;28;20508;-51
2021/09/29 10:13:54;;;;;;;2.70;1.50;;;;;;;;;;5028334;28;20501;-55
2021/09/29 10:27:39;;;;;;;1.97;1.30;;;24.90;99.90;;;;;;5067742;28;20532;-58
2021/09/29 10:30:09;;;;;;;1.53;1.20;;;24.90;99.90;;;;;;5061151;28;20980;-56
2021/09/29 10:32:43;;;;;;;2.13;1.80;;;24.90;99.90;;;;;;5048359;28;20537;-55
2021/09/29 10:35:24;;;;;;;1.97;1.50;;;24.90;99.90;;;;;;5067608;28;20457;-61
2021/09/29 10:43:30;;;;;;;3.30;1.23;;;24.90;99.90;;;;;;5057147;28;21027;-51
2021/09/29 10:46:05;;;;;;;1.83;1.57;;;24.90;99.90;;;;;;5067436;28;20441;-56
2021/09/29 10:48:50;;;;;;;1.77;1.40;;;24.90;99.90;;;;;;5065997;28;20453;-56
2021/09/29 11:06:00;;;;;;;1.70;1.40;;;24.90;99.90;;;;;;5040256;28;20461;-57
2021/09/29 11:08:44;;;;;;;1.67;1.40;;;24.90;99.90;;;;;;5032106;28;20854;-56
2021/09/29 11:28:34;;;;;;;1.83;1.40;;;24.90;99.90;;;;;;5078389;28;20443;-59
2021/09/29 11:31:05;;;;;;;2.47;1.60;;;24.90;99.90;;;;;;5070879;28;20458;-58
2021/09/29 11:33:35;;;;;;;1.63;1.20;;;25.00;99.90;;;;;;5057818;28;20886;-56
2021/09/29 11:36:13;;;;;;;4.60;1.70;;;25.00;99.90;;;;;;5064653;28;20453;-57
2021/09/29 11:39:12;;;;;;;1.47;1.30;;;25.00;99.90;;;;;;5068294;28;20440;-54
2021/09/29 12:12:20;;;;;;;1.60;1.27;;;24.60;99.90;;;;;;5055375;28;20825;-60
2021/09/29 12:14:49;;;;;;;7.20;1.70;;;24.60;99.90;;;;;;5051284;28;20506;-55
2021/09/29 12:17:23;;;;;;;2.50;1.30;;;24.50;99.90;;;;;;5067029;28;20831;-55
2021/09/29 12:19:55;;;;;;;3.40;1.40;;;24.50;99.90;;;;;;5059246;28;20947;-56
2021/09/29 12:22:23;;;;;;;1.20;1.03;;;24.50;99.90;;;;;;5047532;28;20503;-55
2021/09/29 12:24:55;;;;;;;2.60;1.53;;;24.40;99.90;;;;;;5048132;28;20445;-54
2021/09/29 12:27:24;;;;;;;6.60;1.27;;;24.40;99.90;;;;;;5041088;28;20461;-55
2021/09/29 12:29:52;;;;;;;3.80;1.20;;;24.40;99.90;;;;;;5042351;28;20926;-56
2021/09/29 12:32:32;;;;;;;2.00;1.20;;;24.40;99.90;;;;;;5051263;28;20519;-59
2021/09/29 12:35:18;;;;;;;12.13;1.30;;;24.50;99.90;;;;;;5047259;28;20466;-47
2021/09/29 12:37:55;;;;;;;4.20;1.40;;;24.40;99.90;;;;;;5051739;28;20480;-48
2021/09/29 12:40:21;;;;;;;7.03;1.47;;;24.30;99.90;;;;;;5053136;28;20584;-51
2021/09/29 12:42:57;;;;;;;3.27;1.83;;;24.20;99.90;;;;;;5036850;28;20458;-49
2021/09/29 12:45:26;;;;;;;1.60;1.13;;;24.10;99.90;;;;;;5053940;28;20865;-48
2021/09/29 12:47:53;;;;;;;1.57;1.40;;;24.10;99.90;;;;;;5053788;28;20774;-46
2021/09/29 12:50:24;;;;;;;1.87;1.30;;;24.00;99.90;;;;;;5040730;28;20517;-52
2021/09/29 12:52:57;;;;;;;3.63;1.33;;;24.00;99.90;;;;;;5048213;28;20474;-46
2021/09/29 12:55:32;;;;;;;2.43;1.17;;;23.90;99.90;;;;;;5033870;28;20526;-52
2021/09/29 12:57:59;;;;;;;1.77;1.20;;;23.90;99.90;;;;;;5041609;28;20457;-48
2021/09/29 13:00:25;;;;;;;1.57;1.27;;;23.80;99.90;;;;;;5053026;28;20825;-47
2021/09/29 13:02:52;;;;;;;1.87;1.10;;;23.80;99.90;;;;;;5045137;28;20454;-51
2021/09/29 13:05:20;;;;;;;1.37;1.10;;;23.70;99.90;;;;;;5052238;28;20493;-47
2021/09/29 13:07:47;;;;;;;3.47;1.27;;;23.70;99.90;;;;;;5034092;28;20466;-47
2021/09/29 13:10:14;;;;;;;3.20;1.60;;;23.80;99.90;;;;;;5037357;28;20516;-48
2021/09/29 13:12:40;;;;;;;6.43;1.20;;;23.80;99.90;;;;;;5037469;28;20487;-51
2021/09/29 13:15:09;;;;;;;3.20;1.20;;;23.80;99.90;;;;;;5040170;28;20461;-47
2021/09/29 13:17:35;;;;;;;1.80;1.27;;;23.90;99.90;;;;;;5053473;28;20449;-47
2021/09/29 13:20:04;;;;;;;1.60;1.20;;;23.90;99.90;;;;;;5044271;28;20652;-47
2021/09/29 13:22:35;;;;;;;2.40;1.07;;;23.90;99.90;;;;;;5032814;28;21054;-57
2021/09/29 13:38:46;;;;;;;1.80;1.10;;;24.40;99.90;;;;;;5047590;28;20457;-51
2021/09/29 13:41:13;;;;;;;2.27;1.13;;;24.50;99.90;;;;;;5049103;28;20470;-49
2021/09/29 13:43:41;;;;;;;1.40;1.30;;;24.50;99.90;;;;;;5048414;28;20438;-53
2021/09/29 13:46:09;;;;;;;2.17;0.97;;;24.50;99.90;;;;;;5048930;28;20497;-55
2021/09/29 13:48:36;;;;;;;2.60;1.00;;;24.60;99.90;;;;;;5048544;28;20449;-55
2021/09/29 13:51:03;;;;;;;2.10;1.13;;;24.60;99.90;;;;;;5048966;28;20468;-54
2021/09/29 13:53:30;;;;;;;1.60;1.23;;;24.50;99.90;;;;;;5046189;28;20497;-59
2021/09/29 13:56:02;;;;;;;2.20;1.17;;;24.60;99.90;;;;;;5044342;28;20454;-53
2021/09/29 13:58:45;;;;;;;2.20;1.00;;;24.60;99.90;;;;;;5047377;28;21657;-64
2021/09/29 14:01:35;;;;;;;1.40;1.10;;;24.60;99.90;;;;;;5047739;28;20446;-57
2021/09/29 14:29:05;;;;;;;1.23;1.03;;;24.80;99.90;;;;;;5041408;28;20659;-57
2021/09/29 14:31:38;;;;;;;2.20;1.57;;;24.80;99.90;;;;;;5048751;28;20489;-54
2021/09/29 14:34:05;;;;;;;1.23;0.90;;;24.80;99.90;;;;;;5050254;28;20484;-57
2021/09/29 14:36:32;;;;;;;1.80;1.20;;;24.80;99.90;;;;;;5044074;28;20523;-54
2021/09/29 14:38:58;;;;;;;1.50;1.00;;;24.80;99.90;;;;;;5050590;28;20512;-52
2021/09/29 14:41:25;;;;;;;1.50;1.00;;;24.80;99.90;;;;;;5046679;28;20447;-53
2021/09/29 14:43:53;;;;;;;2.23;1.10;;;24.90;99.90;;;;;;5051516;28;20499;-57
2021/09/29 14:46:21;;;;;;;1.33;1.07;;;24.80;99.90;;;;;;5050013;28;20544;-57
2021/09/29 14:48:48;;;;;;;1.50;1.30;;;24.90;99.90;;;;;;5051458;28;20445;-55
2021/09/29 14:51:15;;;;;;;1.10;0.93;;;24.90;99.90;;;;;;5049557;28;20461;-55
2021/09/29 14:53:42;;;;;;;1.33;1.00;;;24.90;99.90;;;;;;5050567;28;20481;-60
2021/09/29 14:56:10;;;;;;;1.30;1.13;;;24.90;99.90;;;;;;5049749;28;20973;-54
2021/09/29 14:58:38;;;;;;;1.30;1.00;;;24.90;99.90;;;;;;5049143;28;20446;-57
2021/09/29 15:01:05;;;;;;;1.10;0.90;;;24.90;99.90;;;;;;5051719;28;20443;-55
2021/09/29 15:03:34;;;;;;;1.40;1.00;;;24.90;99.90;;;;;;5048915;28;20466;-56
2021/09/29 15:06:02;;;;;;;1.23;0.87;;;24.80;99.90;;;;;;5043033;28;20987;-55
2021/09/29 15:08:29;;;;;;;1.10;0.83;;;24.80;99.90;;;;;;5049970;28;20876;-55
2021/09/29 15:10:56;;;;;;;1.30;0.90;;;24.80;99.90;;;;;;5049147;28;20465;-57
2021/09/29 15:13:27;;;;;;;1.13;1.00;;;24.80;99.90;;;;;;5040021;28;20482;-56
2021/09/29 15:15:58;;;;;;;1.20;0.90;;;24.80;99.90;;;;;;5050289;28;20457;-59
2021/09/29 15:18:28;;;;;;;1.30;0.90;;;24.80;99.90;;;;;;5031536;28;20442;-60
2021/09/29 15:21:15;;;;;;;2.70;0.90;;;24.80;99.90;;;;;;5041978;28;20953;-50
2021/09/29 15:29:24;;;;;;;1.30;1.00;;;24.90;99.90;;;;;;5040664;28;20952;-54
2021/09/29 15:31:57;;;;;;;1.43;1.17;;;24.90;99.90;;;;;;5050804;28;20442;-55
2021/09/29 15:48:25;;;;;;;1.07;0.80;;;24.90;99.90;;;;;;5038307;28;20428;-53
2021/09/29 15:50:58;;;;;;;1.47;1.00;;;24.90;99.90;;;;;;5049264;28;21000;-48
2021/09/29 15:53:52;;;;;;;2.27;1.10;;;24.80;99.90;;;;;;5050923;28;20564;-53
2021/09/29 15:56:21;;;;;;;1.07;0.80;;;24.90;99.90;;;;;;5048720;28;20454;-53
2021/09/29 16:01:34;;;;;;;1.20;1.00;;;24.90;99.90;;;;;;5054497;28;20519;-49
2021/09/29 16:04:18;;;;;;;1.13;0.90;;;24.90;99.90;;;;;;5045857;28;20454;-49
2021/09/29 16:06:52;;;;;;;1.00;0.80;;;25.00;99.90;;;;;;5044187;28;20523;-54
2021/09/29 16:15:34;;;;;;;1.40;0.93;;;24.90;99.90;;;;;;5053074;28;20526;-50
2021/09/29 16:23:38;;;;;;;1.30;1.00;;;24.80;99.90;;;;;;5046422;28;20551;-46
2021/09/29 16:31:36;;;;;;;1.00;0.80;;;24.80;99.90;;;;;;5053765;28;20461;-49
2021/09/29 16:34:07;;;;;;;1.00;0.80;;;24.80;99.90;;;;;;5053665;28;20529;-57
2021/09/29 16:36:34;;;;;;;1.00;0.80;;;24.80;99.90;;;;;;5050577;28;20532;-49
2021/09/29 16:39:00;;;;;;;1.10;0.80;;;24.80;99.90;;;;;;5053554;28;20465;-61
2021/09/29 16:41:28;;;;;;;1.27;1.00;;;24.80;99.90;;;;;;5048444;28;20520;-56
2021/09/29 16:43:55;;;;;;;1.10;1.00;;;24.80;99.90;;;;;;5051924;28;20528;-57
2021/09/29 16:46:23;;;;;;;1.10;0.80;;;24.80;99.90;;;;;;5052858;28;20465;-51
2021/09/29 16:48:50;;;;;;;2.73;1.20;;;24.80;99.90;;;;;;5053243;28;20453;-48
2021/09/29 16:51:28;;;;;;;6.07;1.30;;;24.60;92.30;;;;;;5047386;28;21026;-54
2021/09/29 16:53:58;;;;;;;8.00;1.50;;;23.90;99.90;;;;;;5048389;28;20478;-48
2021/09/29 16:56:25;;;;;;;2.93;1.20;;;23.80;99.90;;;;;;5047416;28;20533;-48
2021/09/29 16:58:56;;;;;;;2.13;1.10;;;23.80;99.90;;;;;;5051333;28;20504;-53
2021/09/29 17:01:27;;;;;;;1.20;1.00;;;23.80;99.90;;;;;;5050037;28;20446;-56
2021/09/29 17:03:54;;;;;;;1.53;1.00;;;23.80;99.90;;;;;;5051059;28;20462;-51
2021/09/29 17:06:20;;;;;;;1.10;0.93;;;23.80;99.90;;;;;;5046354;28;20530;-52
2021/09/29 17:08:47;;;;;;;3.27;1.00;;;23.80;99.90;;;;;;5050735;28;20466;-50
2021/09/29 17:11:14;;;;;;;3.33;1.63;;;23.80;99.90;;;;;;5052984;28;20864;-50
2021/09/29 17:13:42;;;;;;;2.60;1.10;;;23.80;99.90;;;;;;5052178;28;20470;-53
2021/09/29 17:16:13;;;;;;;4.30;1.10;;;23.80;99.90;;;;;;5046266;28;20441;-53
2021/09/29 17:18:42;;;;;;;1.77;0.90;;;23.80;99.90;;;;;;5049331;28;20461;-50
2021/09/29 17:21:09;;;;;;;2.10;1.40;;;23.70;99.90;;;;;;5038958;28;20507;-53
2021/09/29 17:23:36;;;;;;;2.20;1.30;;;23.70;99.90;;;;;;5052882;28;20868;-53
2021/09/29 17:26:03;;;;;;;1.40;1.00;;;23.70;99.90;;;;;;5050953;28;20434;-53
2021/09/29 17:28:30;;;;;;;1.83;0.90;;;23.70;99.90;;;;;;5050709;28;20796;-50
2021/09/29 17:31:00;;;;;;;1.50;1.00;;;23.70;99.90;;;;;;5051753;28;20482;-49
2021/09/29 17:33:45;;;;;;;1.27;1.00;;;23.70;99.90;;;;;;5052399;28;20448;-48
2021/09/29 17:36:22;;;;;;;1.70;0.97;;;23.70;99.90;;;;;;5047526;28;20454;-47
2021/09/29 17:39:22;;;;;;;5.23;1.27;;;23.80;99.90;;;;;;5051935;28;20474;-49
2021/09/29 17:52:49;;;;;;;1.77;1.13;;;23.80;99.90;;;;;;5052168;28;20959;-47
2021/09/29 17:55:17;;;;;;;1.47;1.20;;;23.80;99.90;;;;;;5052379;28;20979;-48
2021/09/29 17:57:44;;;;;;;1.10;0.90;;;23.80;99.90;;;;;;5048714;28;20461;-60
2021/09/29 18:00:13;;;;;;;1.60;1.20;;;23.80;99.90;;;;;;5043479;28;20967;-53
2021/09/29 18:02:51;;;;;;;1.30;0.90;;;23.60;99.90;;;;;;5049445;28;20867;-48
2021/09/29 18:05:30;;;;;;;2.83;1.57;;;23.60;99.90;;;;;;5049070;28;20468;-49
2021/09/29 18:07:56;;;;;;;4.77;1.10;;;23.50;99.90;;;;;;5049658;28;20527;-49
2021/09/29 18:10:23;;;;;;;1.23;0.97;;;23.40;99.90;;;;;;5040264;28;20446;-54
2021/09/29 18:12:50;;;;;;;2.23;1.00;;;23.30;99.90;;;;;;5049343;28;20474;-48
2021/09/29 18:15:17;;;;;;;1.53;1.07;;;23.30;99.90;;;;;;5051836;28;20809;-48
2021/09/29 18:17:44;;;;;;;3.50;1.30;;;23.30;99.90;;;;;;5050926;28;20458;-49
2021/09/29 18:20:12;;;;;;;3.07;1.30;;;23.20;99.90;;;;;;5052033;28;21006;-52
2021/09/29 18:22:40;;;;;;;1.40;0.90;;;23.20;99.90;;;;;;5047527;28;20458;-52
2021/09/29 18:25:10;;;;;;;1.30;1.10;;;23.20;99.90;;;;;;5052088;28;20860;-48
2021/09/29 18:27:37;;;;;;;1.73;1.00;;;23.20;99.90;;;;;;5045563;28;20454;-48
2021/09/29 18:30:05;;;;;;;3.77;1.23;;;23.20;99.90;;;;;;5051548;28;20610;-53
2021/09/29 18:32:32;;;;;;;2.37;1.00;;;23.10;99.90;;;;;;5048086;28;20462;-53
2021/09/29 18:34:59;;;;;;;1.50;0.80;;;23.20;99.90;;;;;;5050918;28;20501;-49
2021/09/29 18:37:26;;;;;;;2.27;1.10;;;23.30;99.90;;;;;;5047514;28;20889;-48
2021/09/29 18:39:55;;;;;;;1.70;1.10;;;23.30;99.90;;;;;;5051258;28;20500;-47
2021/09/29 18:42:22;;;;;;;2.20;1.10;;;23.40;99.90;;;;;;5049327;28;20523;-52
2021/09/29 18:44:51;;;;;;;1.10;1.00;;;23.40;99.90;;;;;;5050666;28;20467;-48
2021/09/29 18:47:18;;;;;;;1.90;1.20;;;23.40;99.90;;;;;;5050883;28;20448;-48
2021/09/29 18:49:47;;;;;;;1.43;1.00;;;23.40;99.90;;;;;;5043147;28;20455;-51
2021/09/29 18:52:15;;;;;;;3.50;1.30;;;23.40;99.90;;;;;;5041942;28;20528;-50
2021/09/29 18:54:50;;;;;;;1.60;1.20;;;23.40;99.90;;;;;;5050285;28;20836;-50
2021/09/29 18:57:37;;;;;;;3.30;0.90;;;23.40;99.90;;;;;;5047036;28;20465;-52
2021/09/29 19:08:21;;;;;;;1.50;0.93;;;23.40;99.90;;;;;;5049753;28;20437;-50
2021/09/29 19:10:48;;;;;;;1.60;1.10;;;23.40;99.90;;;;;;5049740;28;20911;-50
2021/09/29 19:13:20;;;;;;;1.70;0.80;;;23.40;99.90;;;;;;5042040;28;20453;-52
2021/09/29 19:15:47;;;;;;;1.10;0.80;;;23.40;99.90;;;;;;5051183;28;20527;-54
2021/09/29 19:18:14;;;;;;;1.37;1.03;;;23.40;99.90;;;;;;5050664;28;20508;-48
2021/09/29 19:20:40;;;;;;;2.37;0.80;;;23.40;99.90;;;;;;5044555;28;20466;-48
2021/09/29 19:23:08;;;;;;;1.87;0.93;;;23.40;99.90;;;;;;5036444;28;20454;-49
2021/09/29 19:25:35;;;;;;;1.77;1.10;;;23.40;99.90;;;;;;5047966;28;20549;-47
2021/09/29 19:28:04;;;;;;;1.20;0.80;;;23.40;99.90;;;;;;5046500;28;20461;-48
2021/09/29 19:30:32;;;;;;;1.57;0.93;;;23.40;99.90;;;;;;5044261;28;20473;-51
2021/09/29 19:33:00;;;;;;;1.40;0.80;;;23.40;99.90;;;;;;5048295;28;20960;-48
2021/09/29 19:35:28;;;;;;;1.30;1.10;;;23.40;99.90;;;;;;5049188;28;20753;-48
2021/09/29 19:37:56;;;;;;;1.57;1.00;;;23.40;99.90;;;;;;5053455;28;20462;-47
2021/09/29 19:40:24;;;;;;;1.57;1.03;;;23.40;99.90;;;;;;5051667;28;20438;-50
2021/09/29 19:42:51;;;;;;;2.00;1.20;;;23.40;99.90;;;;;;5039690;28;20849;-48
2021/09/29 19:45:19;;;;;;;1.30;1.03;;;23.40;99.90;;;;;;5053800;28;20453;-50
2021/09/29 19:47:57;;;;;;;1.23;0.90;;;23.40;99.90;;;;;;5054703;28;20532;-52
2021/09/29 20:09:49;;;;;;;2.03;1.20;;;23.30;99.90;;;;;;5054158;28;20573;-49
2021/09/29 20:12:16;;;;;;;1.70;1.10;;;23.30;99.90;;;;;;5038159;28;20912;-48
2021/09/29 20:14:43;;;;;;;1.20;1.00;;;23.30;99.90;;;;;;5052169;28;20501;-47
2021/09/29 20:17:11;;;;;;;1.60;1.00;;;23.30;99.90;;;;;;5052419;28;20450;-50
2021/09/29 20:19:40;;;;;;;1.00;0.77;;;23.30;99.90;;;;;;5051943;28;20956;-48
2021/09/29 20:22:07;;;;;;;1.20;1.00;;;23.30;99.90;;;;;;5051126;28;20515;-47
2021/09/29 20:24:35;;;;;;;3.83;1.10;;;23.30;99.90;;;;;;5053487;28;20533;-48
2021/09/29 20:27:01;;;;;;;0.97;0.80;;;23.30;99.90;;;;;;5046322;28;20449;-51
2021/09/29 20:29:28;;;;;;;1.10;1.00;;;23.30;99.90;;;;;;5053233;28;20434;-46
2021/09/29 20:31:55;;;;;;;1.10;0.97;;;23.30;99.90;;;;;;5052934;28;20442;-48
2021/09/29 20:34:32;;;;;;;1.33;1.00;;;23.30;99.90;;;;;;5052624;28;20481;-51
2021/09/29 20:45:14;;;;;;;1.40;0.90;;;23.30;99.90;;;;;;5051831;28;20510;-47
2021/09/29 20:47:42;;;;;;;1.50;1.00;;;23.20;99.90;;;;;;5053919;28;20445;-48
2021/09/29 20:50:10;;;;;;;1.10;0.80;;;23.20;99.90;;;;;;5052459;28;20876;-48
2021/09/29 20:52:39;;;;;;;1.00;0.80;;;23.20;99.90;;;;;;5043968;28;20466;-49
2021/09/29 20:55:07;;;;;;;1.10;0.90;;;23.20;99.90;;;;;;5047465;28;20474;-47
2021/09/29 20:57:33;;;;;;;1.30;0.83;;;23.20;99.90;;;;;;5045037;28;20553;-48
2021/09/29 21:00:00;;;;;;;1.37;0.97;;;23.20;99.90;;;;;;5051529;28;20462;-50
2021/09/29 21:02:27;;;;;;;1.30;0.80;;;23.20;99.90;;;;;;5051893;28;20540;-47
2021/09/29 21:04:54;;;;;;;1.00;0.73;;;23.20;99.90;;;;;;5050529;28;20466;-49
2021/09/29 21:07:20;;;;;;;1.57;0.80;;;23.20;99.90;;;;;;5047716;28;20442;-48
2021/09/29 21:09:58;;;;;;;1.20;0.97;;;23.20;99.90;;;;;;5052424;28;20453;-50
2021/09/29 21:12:28;;;;;;;1.10;0.80;;;23.20;99.90;;;;;;5043357;28;20480;-52
2021/09/29 21:14:59;;;;;;;1.50;1.13;;;23.20;99.90;;;;;;5052901;28;20485;-47
2021/09/29 21:20:12;;;;;;;1.40;1.20;;;23.20;99.90;;;;;;5052312;28;20567;-53
2021/09/29 21:22:39;;;;;;;1.00;0.80;;;23.20;99.90;;;;;;5036024;28;20466;-49
2021/09/29 21:25:08;;;;;;;1.03;0.90;;;23.20;99.90;;;;;;5052394;28;20462;-47
2021/09/29 21:27:36;;;;;;;2.30;1.07;;;23.20;99.90;;;;;;5047502;28;20889;-51
2021/09/29 21:30:05;;;;;;;1.77;0.90;;;23.20;99.90;;;;;;5051880;28;20477;-48
2021/09/29 21:32:32;;;;;;;1.67;1.00;;;23.20;99.90;;;;;;5052849;28;20470;-53
2021/09/29 21:35:02;;;;;;;1.83;1.03;;;23.20;99.90;;;;;;5052571;28;20584;-48
2021/09/29 21:37:32;;;;;;;1.13;0.80;;;23.20;99.90;;;;;;5047189;28;20466;-49
2021/09/29 21:40:10;;;;;;;1.10;0.90;;;23.20;99.90;;;;;;5049374;28;20893;-49
2021/09/29 21:59:52;;;;;;;0.90;0.80;;;23.20;99.90;;;;;;5048271;28;20488;-54
2021/09/29 22:05:30;;;;;;;2.13;1.40;;;23.20;99.90;;;;;;5029292;28;20452;-54
2021/09/29 22:13:53;;;;;;;2.20;0.90;;;23.20;99.90;;;;;;5048751;28;20440;-56
2021/09/29 23:06:00;;;;;;;1.53;0.80;;;23.00;99.90;;;;;;5041406;28;20453;-49
2021/09/29 23:08:32;;;;;;;1.13;0.93;;;23.00;99.90;;;;;;5045619;28;20458;-47
2021/09/29 23:11:03;;;;;;;2.47;0.80;;;23.00;99.90;;;;;;5050301;28;20446;-50
2021/09/29 23:13:41;;;;;;;3.23;1.00;;;23.00;99.90;;;;;;5050015;28;20457;-51
2021/09/29 23:32:36;;;;;;;1.00;0.90;;;22.80;99.90;;;;;;5050232;28;20452;-49
2021/09/29 23:35:06;;;;;;;1.30;0.80;;;22.80;99.90;;;;;;5047573;28;20473;-54
2021/09/29 23:37:36;;;;;;;1.20;0.90;;;22.80;99.90;;;;;;5049921;28;20537;-47
2021/09/29 23:40:05;;;;;;;1.33;0.90;;;22.80;99.90;;;;;;5049616;28;21027;-50
2021/09/29 23:42:32;;;;;;;2.03;0.90;;;22.80;99.90;;;;;;5043224;28;20520;-47
2021/09/29 23:44:59;;;;;;;1.70;0.80;;;22.80;99.90;;;;;;5047658;28;20474;-53
2021/09/29 23:47:26;;;;;;;1.70;1.00;;;22.80;99.90;;;;;;5050596;28;20445;-48
2021/09/29 23:49:52;;;;;;;1.00;0.80;;;22.80;99.90;;;;;;5049095;28;20523;-52
2021/09/29 23:52:19;;;;;;;1.20;0.80;;;22.80;99.90;;;;;;5050732;28;20463;-48
2021/09/29 23:54:47;;;;;;;1.00;0.80;;;22.80;99.90;;;;;;5051265;28;20449;-47
2021/09/29 23:57:14;;;;;;;1.10;0.80;;;22.80;99.90;;;;;;5046787;28;20508;-54
2021/09/29 23:59:40;;;;;;;1.80;0.80;;;22.80;99.90;;;;;;5050936;28;20476;-50
